createdAt,value
2017-10-21T00:00:33.785Z,7.58
2017-10-21T00:03:01.560Z,7.57
2017-10-21T00:05:29.366Z,7.76
2017-10-21T00:07:57.063Z,7.66
2017-10-21T00:10:24.819Z,7.60
2017-10-21T00:12:53.060Z,7.58
2017-10-21T00:15:20.766Z,7.56
2017-10-21T00:17:48.460Z,7.60
2017-10-21T00:20:16.211Z,7.46
2017-10-21T00:22:43.914Z,7.51
2017-10-21T00:25:11.669Z,7.54
2017-10-21T00:27:39.398Z,7.66
2017-10-21T00:30:07.137Z,7.59
2017-10-21T00:32:34.825Z,7.42
2017-10-21T00:35:02.593Z,7.43
2017-10-21T00:37:30.347Z,7.34
2017-10-21T00:39:58.210Z,7.35
2017-10-21T00:42:25.946Z,7.32
2017-10-21T00:44:53.735Z,7.31
2017-10-21T00:47:21.474Z,7.18
2017-10-21T00:49:49.237Z,7.20
2017-10-21T00:52:16.920Z,7.10
2017-10-21T00:54:44.628Z,7.12
2017-10-21T00:57:12.444Z,7.13
2017-10-21T00:59:40.225Z,7.07
2017-10-21T01:02:07.948Z,7.12
2017-10-21T01:04:35.754Z,7.20
2017-10-21T01:07:04.550Z,7.26
2017-10-21T01:09:32.322Z,7.17
2017-10-21T01:12:00.071Z,7.24
2017-10-21T01:14:27.901Z,7.16
2017-10-21T01:16:56.450Z,7.11
2017-10-21T01:19:24.189Z,7.21
2017-10-21T01:21:51.992Z,7.17
2017-10-21T01:24:19.752Z,7.14
2017-10-21T01:26:47.486Z,7.16
2017-10-21T01:29:15.318Z,7.24
2017-10-21T01:31:43.613Z,7.05
2017-10-21T01:34:11.367Z,6.95
2017-10-21T01:36:39.181Z,7.15
2017-10-21T01:39:06.974Z,7.15
2017-10-21T01:41:34.808Z,7.26
2017-10-21T01:44:02.542Z,7.17
2017-10-21T01:46:30.307Z,7.12
2017-10-21T01:48:58.162Z,7.24
2017-10-21T01:51:25.881Z,7.10
2017-10-21T01:53:53.611Z,7.15
2017-10-21T01:56:21.381Z,7.20
2017-10-21T01:58:49.135Z,7.12
2017-10-21T02:01:16.871Z,7.09
2017-10-21T02:03:44.600Z,7.05
2017-10-21T02:06:12.355Z,7.03
2017-10-21T02:08:40.072Z,7.07
2017-10-21T02:11:07.838Z,7.00
2017-10-21T02:13:35.617Z,6.98
2017-10-21T02:16:03.406Z,6.93
2017-10-21T02:18:31.124Z,6.97
2017-10-21T02:20:58.980Z,6.98
2017-10-21T02:23:26.724Z,6.94
2017-10-21T02:25:54.536Z,6.85
2017-10-21T02:28:22.294Z,6.87
2017-10-21T02:30:50.080Z,6.88
2017-10-21T02:33:17.815Z,6.84
2017-10-21T02:35:45.534Z,6.86
2017-10-21T02:38:13.336Z,6.84
2017-10-21T02:40:41.098Z,6.90
2017-10-21T02:43:08.845Z,6.92
2017-10-21T02:45:36.613Z,6.98
2017-10-21T02:48:04.391Z,7.04
2017-10-21T02:50:32.074Z,7.10
2017-10-21T02:52:59.829Z,6.98
2017-10-21T02:55:27.523Z,6.92
2017-10-21T02:57:55.284Z,6.84
2017-10-21T03:00:23.037Z,6.73
2017-10-21T03:02:50.853Z,6.81
2017-10-21T03:05:18.642Z,6.90
2017-10-21T03:07:46.437Z,6.94
2017-10-21T03:10:14.373Z,6.97
2017-10-21T03:12:42.080Z,6.95
2017-10-21T03:15:09.793Z,6.99
2017-10-21T03:17:37.571Z,7.03
2017-10-21T03:20:05.371Z,6.91
2017-10-21T03:22:33.103Z,6.77
2017-10-21T03:25:00.819Z,6.77
2017-10-21T03:27:28.560Z,6.81
2017-10-21T03:29:56.384Z,6.79
2017-10-21T03:32:24.080Z,6.72
2017-10-21T03:34:51.831Z,6.68
2017-10-21T03:37:20.202Z,6.70
2017-10-21T03:39:47.953Z,6.69
2017-10-21T03:42:15.660Z,6.63
2017-10-21T03:44:43.436Z,6.68
2017-10-21T03:47:11.110Z,6.64
2017-10-21T03:49:38.864Z,6.73
2017-10-21T03:52:06.589Z,6.78
2017-10-21T03:54:34.473Z,6.83
2017-10-21T03:57:02.418Z,6.84
2017-10-21T03:59:30.076Z,6.76
2017-10-21T04:01:57.826Z,6.60
2017-10-21T04:04:25.488Z,6.64
2017-10-21T04:06:53.186Z,6.65
2017-10-21T04:09:20.967Z,6.60
2017-10-21T04:11:48.704Z,6.63
2017-10-21T04:14:16.427Z,6.68
2017-10-21T04:16:44.273Z,6.74
2017-10-21T04:19:11.994Z,6.73
2017-10-21T04:21:39.859Z,6.74
2017-10-21T04:24:07.737Z,6.82
2017-10-21T04:26:35.501Z,6.83
2017-10-21T04:29:03.295Z,6.80
2017-10-21T04:31:31.035Z,6.82
2017-10-21T04:33:58.733Z,6.87
2017-10-21T04:36:26.480Z,6.88
2017-10-21T04:38:54.198Z,6.82
2017-10-21T04:41:21.860Z,6.88
2017-10-21T04:43:49.642Z,6.86
2017-10-21T04:46:17.370Z,6.85
2017-10-21T04:48:45.214Z,6.91
2017-10-21T04:51:12.902Z,6.99
2017-10-21T04:53:40.655Z,6.92
2017-10-21T04:56:08.317Z,6.71
2017-10-21T04:58:35.992Z,6.63
2017-10-21T05:01:03.734Z,6.75
2017-10-21T05:03:31.420Z,6.78
2017-10-21T05:05:59.117Z,6.89
2017-10-21T05:08:26.825Z,6.85
2017-10-21T05:10:54.575Z,6.88
2017-10-21T05:13:22.274Z,6.85
2017-10-21T05:15:50.030Z,6.78
2017-10-21T05:18:17.740Z,6.74
2017-10-21T05:20:45.444Z,6.73
2017-10-21T05:23:14.204Z,6.80
2017-10-21T05:25:42.171Z,6.87
2017-10-21T05:28:09.997Z,6.93
2017-10-21T05:30:37.688Z,6.98
2017-10-21T05:33:05.448Z,6.99
2017-10-21T05:35:33.132Z,6.99
2017-10-21T05:38:00.910Z,6.99
2017-10-21T05:40:28.819Z,6.86
2017-10-21T05:42:56.830Z,6.94
2017-10-21T05:45:24.656Z,6.99
2017-10-21T05:47:52.547Z,6.98
2017-10-21T05:50:20.420Z,6.86
2017-10-21T05:52:48.239Z,6.96
2017-10-21T05:55:16.084Z,6.94
2017-10-21T05:57:43.870Z,6.99
2017-10-21T06:00:11.707Z,7.03
2017-10-21T06:02:39.660Z,7.06
2017-10-21T06:05:07.408Z,7.15
2017-10-21T06:07:35.204Z,7.32
2017-10-21T06:10:03.055Z,7.35
2017-10-21T06:12:30.966Z,7.32
2017-10-21T06:14:59.057Z,7.21
2017-10-21T06:17:36.688Z,7.24
2017-10-21T06:20:04.580Z,7.37
2017-10-21T06:22:32.427Z,7.15
2017-10-21T06:25:00.131Z,7.27
2017-10-21T06:27:28.032Z,7.31
2017-10-21T06:29:56.222Z,7.39
2017-10-21T06:32:25.080Z,7.55
2017-10-21T06:34:53.046Z,7.59
2017-10-21T06:37:20.901Z,7.60
2017-10-21T06:39:48.668Z,7.62
2017-10-21T06:42:16.503Z,7.72
2017-10-21T06:44:44.340Z,7.73
2017-10-21T06:47:12.096Z,7.76
2017-10-21T06:49:39.928Z,7.89
2017-10-21T06:52:07.677Z,8.04
2017-10-21T06:54:36.736Z,8.12
2017-10-21T06:57:04.704Z,8.09
2017-10-21T06:59:32.476Z,8.14
2017-10-21T07:02:00.318Z,8.23
2017-10-21T07:04:28.012Z,8.30
2017-10-21T07:06:55.834Z,8.37
2017-10-21T07:09:23.556Z,8.39
2017-10-21T07:11:51.437Z,8.13
2017-10-21T07:14:19.426Z,8.10
2017-10-21T07:16:47.272Z,7.94
2017-10-21T07:19:15.715Z,7.95
2017-10-21T07:21:43.526Z,8.02
2017-10-21T07:24:13.915Z,8.24
2017-10-21T07:26:43.296Z,8.41
2017-10-21T07:29:11.265Z,8.24
2017-10-21T07:31:39.194Z,8.04
2017-10-21T07:34:10.670Z,8.09
2017-10-21T07:36:38.733Z,8.29
2017-10-21T07:39:06.676Z,8.38
2017-10-21T07:41:34.483Z,8.50
2017-10-21T07:44:02.283Z,8.60
2017-10-21T07:46:30.078Z,8.71
2017-10-21T07:48:57.868Z,8.74
2017-10-21T07:51:25.823Z,8.83
2017-10-21T07:53:53.874Z,8.95
2017-10-21T07:56:21.830Z,9.13
2017-10-21T07:58:49.726Z,9.29
2017-10-21T08:01:17.719Z,9.66
2017-10-21T08:03:45.484Z,9.67
2017-10-21T08:06:13.494Z,9.40
2017-10-21T08:08:41.545Z,9.42
2017-10-21T08:11:09.845Z,9.46
2017-10-21T08:13:37.743Z,9.34
2017-10-21T08:16:05.769Z,9.46
2017-10-21T08:18:33.843Z,9.63
2017-10-21T08:21:01.926Z,9.71
2017-10-21T08:23:29.730Z,9.63
2017-10-21T08:25:58.606Z,9.73
2017-10-21T08:28:26.578Z,9.61
2017-10-21T08:30:54.449Z,9.55
2017-10-21T08:33:22.311Z,9.57
2017-10-21T08:35:50.197Z,9.63
2017-10-21T08:38:18.220Z,9.66
2017-10-21T08:40:46.070Z,9.64
2017-10-21T08:43:14.084Z,9.55
2017-10-21T08:45:42.237Z,9.60
2017-10-21T08:48:10.275Z,9.72
2017-10-21T08:50:39.377Z,9.63
2017-10-21T08:53:07.232Z,9.62
2017-10-21T08:55:35.253Z,9.56
2017-10-21T08:58:03.851Z,9.46
2017-10-21T09:00:32.352Z,9.48
2017-10-21T09:03:00.936Z,9.59
2017-10-21T09:05:28.929Z,9.61
2017-10-21T09:07:57.743Z,9.73
2017-10-21T09:10:25.593Z,9.80
2017-10-21T09:12:53.385Z,9.73
2017-10-21T09:15:22.225Z,9.79
2017-10-21T09:17:50.186Z,9.98
2017-10-21T09:20:18.233Z,10.04
2017-10-21T09:22:46.183Z,10.15
2017-10-21T09:25:14.092Z,10.29
2017-10-21T09:27:42.643Z,10.34
2017-10-21T09:30:11.105Z,10.25
2017-10-21T09:32:39.842Z,10.38
2017-10-21T09:35:07.684Z,10.46
2017-10-21T09:37:35.624Z,10.58
2017-10-21T09:40:04.358Z,10.45
2017-10-21T09:42:32.381Z,10.28
2017-10-21T09:45:00.289Z,10.25
2017-10-21T09:47:28.202Z,10.42
2017-10-21T09:49:56.964Z,10.50
2017-10-21T09:52:25.288Z,10.64
2017-10-21T09:54:54.311Z,10.55
2017-10-21T09:57:22.246Z,10.61
2017-10-21T09:59:50.246Z,10.62
2017-10-21T10:02:18.183Z,10.66
2017-10-21T10:04:50.036Z,10.48
2017-10-21T10:07:17.984Z,10.63
2017-10-21T10:09:46.008Z,10.98
2017-10-21T10:12:13.948Z,10.89
2017-10-21T10:14:41.867Z,10.98
2017-10-21T10:17:11.017Z,10.96
2017-10-21T10:19:39.112Z,10.96
2017-10-21T10:22:07.061Z,11.08
2017-10-21T10:24:34.933Z,11.04
2017-10-21T10:27:02.815Z,10.96
2017-10-21T10:29:37.166Z,10.93
2017-10-21T10:32:05.109Z,10.88
2017-10-21T10:34:33.570Z,10.96
2017-10-21T10:37:02.531Z,10.93
2017-10-21T10:39:31.268Z,10.82
2017-10-21T10:41:59.006Z,10.81
2017-10-21T10:44:27.650Z,10.87
2017-10-21T10:46:56.517Z,10.89
2017-10-21T10:49:24.611Z,11.02
2017-10-21T10:51:52.432Z,11.16
2017-10-21T10:54:20.278Z,11.15
2017-10-21T10:56:48.012Z,11.14
2017-10-21T10:59:15.729Z,11.19
2017-10-21T11:01:43.498Z,11.26
2017-10-21T11:04:11.227Z,11.29
2017-10-21T11:06:39.872Z,11.34
2017-10-21T11:09:09.443Z,11.41
2017-10-21T11:11:37.205Z,11.36
2017-10-21T11:14:04.912Z,11.41
2017-10-21T11:16:32.668Z,11.41
2017-10-21T11:19:00.385Z,11.40
2017-10-21T11:21:28.107Z,11.47
2017-10-21T11:23:55.866Z,11.33
2017-10-21T11:26:24.462Z,11.30
2017-10-21T11:28:52.237Z,11.27
2017-10-21T11:31:19.992Z,11.21
2017-10-21T11:33:49.464Z,11.28
2017-10-21T11:36:18.093Z,11.45
2017-10-21T11:38:45.773Z,11.34
2017-10-21T11:41:14.621Z,11.33
2017-10-21T11:43:42.385Z,11.34
2017-10-21T11:46:10.094Z,11.33
2017-10-21T11:48:37.897Z,11.34
2017-10-21T11:51:05.661Z,11.31
2017-10-21T11:53:33.366Z,11.15
2017-10-21T11:56:01.964Z,11.15
2017-10-21T11:58:29.693Z,11.20
2017-10-21T12:00:57.469Z,11.15
2017-10-21T12:03:25.210Z,11.11
2017-10-21T12:05:52.905Z,11.07
2017-10-21T12:08:20.659Z,10.97
2017-10-21T12:10:48.416Z,10.94
2017-10-21T12:13:16.168Z,11.02
2017-10-21T12:15:43.931Z,11.12
2017-10-21T12:18:12.671Z,11.12
2017-10-21T12:20:40.377Z,11.08
2017-10-21T12:23:08.151Z,11.07
2017-10-21T12:25:35.856Z,11.03
2017-10-21T12:28:04.495Z,11.10
2017-10-21T12:30:32.291Z,11.06
2017-10-21T12:33:00.021Z,11.15
2017-10-21T12:35:27.725Z,11.28
2017-10-21T12:37:56.829Z,11.33
2017-10-21T12:40:25.566Z,11.34
2017-10-21T12:42:57.301Z,11.48
2017-10-21T12:45:27.838Z,11.42
2017-10-21T12:47:55.669Z,11.52
2017-10-21T12:50:23.516Z,11.38
2017-10-21T12:52:51.271Z,11.45
2017-10-21T12:55:19.022Z,11.57
2017-10-21T12:57:46.767Z,11.63
2017-10-21T13:00:14.515Z,11.77
2017-10-21T13:02:42.279Z,12.02
2017-10-21T13:05:10.045Z,12.05
2017-10-21T13:07:37.777Z,11.91
2017-10-21T13:10:05.590Z,11.74
2017-10-21T13:12:33.325Z,11.87
2017-10-21T13:15:01.120Z,11.91
2017-10-21T13:17:28.839Z,11.90
2017-10-21T13:19:56.560Z,11.98
2017-10-21T13:22:24.329Z,12.12
2017-10-21T13:24:52.118Z,12.30
2017-10-21T13:27:19.865Z,12.63
2017-10-21T13:29:47.615Z,13.07
2017-10-21T13:32:15.565Z,13.05
2017-10-21T13:34:43.358Z,13.27
2017-10-21T13:37:11.071Z,13.08
2017-10-21T13:39:39.175Z,13.26
2017-10-21T13:42:06.898Z,12.87
2017-10-21T13:44:34.657Z,12.82
2017-10-21T13:47:02.394Z,12.98
2017-10-21T13:49:30.101Z,13.18
2017-10-21T13:51:57.901Z,13.40
2017-10-21T13:54:25.749Z,13.54
2017-10-21T13:56:53.498Z,13.56
2017-10-21T13:59:21.283Z,13.84
2017-10-21T14:01:49.088Z,13.84
2017-10-21T14:04:16.770Z,13.93
2017-10-21T14:06:44.968Z,14.19
2017-10-21T14:09:12.754Z,13.88
2017-10-21T14:11:40.644Z,13.83
2017-10-21T14:14:09.588Z,13.97
2017-10-21T14:16:37.298Z,14.09
2017-10-21T14:19:05.091Z,13.71
2017-10-21T14:21:32.823Z,13.61
2017-10-21T14:24:00.556Z,13.66
2017-10-21T14:26:28.345Z,13.38
2017-10-21T14:28:57.333Z,13.57
2017-10-21T14:31:25.139Z,13.69
2017-10-21T14:33:52.950Z,13.90
2017-10-21T14:36:20.710Z,13.74
2017-10-21T14:38:48.499Z,13.73
2017-10-21T14:41:16.286Z,13.61
2017-10-21T14:43:44.059Z,13.62
2017-10-21T14:46:11.834Z,13.59
2017-10-21T14:48:39.581Z,13.42
2017-10-21T14:51:07.697Z,13.54
2017-10-21T14:53:35.468Z,13.55
2017-10-21T14:56:03.234Z,13.37
2017-10-21T14:58:31.001Z,13.41
2017-10-21T15:00:58.784Z,13.43
2017-10-21T15:03:26.480Z,13.40
2017-10-21T15:05:54.433Z,13.31
2017-10-21T15:08:22.171Z,13.25
2017-10-21T15:10:50.734Z,13.27
2017-10-21T15:13:19.102Z,13.24
2017-10-21T15:15:47.217Z,13.09
2017-10-21T15:18:14.974Z,13.07
2017-10-21T15:20:42.765Z,12.97
2017-10-21T15:23:10.505Z,12.95
2017-10-21T15:25:38.309Z,12.92
2017-10-21T15:28:06.114Z,12.80
2017-10-21T15:30:34.149Z,12.67
2017-10-21T15:33:01.999Z,12.54
2017-10-21T15:35:29.799Z,12.52
2017-10-21T15:37:57.887Z,12.53
2017-10-21T15:40:25.589Z,12.48
2017-10-21T15:42:53.350Z,12.39
2017-10-21T15:45:22.402Z,12.26
2017-10-21T15:47:50.282Z,12.24
2017-10-21T15:50:19.049Z,12.10
2017-10-21T15:52:47.204Z,11.92
2017-10-21T15:55:14.972Z,11.89
2017-10-21T15:57:42.797Z,11.85
2017-10-21T16:00:10.605Z,11.88
2017-10-21T16:02:38.406Z,11.65
2017-10-21T16:05:06.397Z,11.71
2017-10-21T16:07:34.155Z,11.69
2017-10-21T16:10:02.336Z,11.52
2017-10-21T16:12:30.116Z,11.40
2017-10-21T16:14:57.883Z,11.50
2017-10-21T16:17:25.631Z,11.41
2017-10-21T16:19:53.349Z,11.30
2017-10-21T16:22:21.150Z,11.27
2017-10-21T16:24:48.852Z,11.28
2017-10-21T16:27:16.557Z,11.21
2017-10-21T16:29:44.292Z,11.15
2017-10-21T16:32:12.063Z,11.10
2017-10-21T16:34:39.811Z,10.98
2017-10-21T16:37:07.590Z,10.92
2017-10-21T16:39:35.349Z,10.99
2017-10-21T16:42:03.153Z,11.04
2017-10-21T16:44:30.845Z,10.95
2017-10-21T16:46:58.626Z,10.76
2017-10-21T16:49:26.347Z,10.90
2017-10-21T16:51:54.240Z,10.86
2017-10-21T16:54:22.127Z,10.75
2017-10-21T16:56:49.979Z,10.69
2017-10-21T16:59:17.872Z,10.81
2017-10-21T17:01:45.663Z,10.64
2017-10-21T17:04:13.472Z,10.56
2017-10-21T17:06:42.045Z,10.62
2017-10-21T17:09:09.874Z,10.63
2017-10-21T17:11:37.603Z,10.54
2017-10-21T17:14:05.324Z,10.50
2017-10-21T17:16:33.222Z,10.56
2017-10-21T17:19:00.929Z,10.51
2017-10-21T17:21:28.756Z,10.32
2017-10-21T17:23:56.585Z,10.38
2017-10-21T17:26:24.332Z,10.38
2017-10-21T17:28:52.086Z,10.38
2017-10-21T17:31:20.029Z,10.31
2017-10-21T17:33:47.820Z,10.30
2017-10-21T17:36:15.605Z,10.24
2017-10-21T17:38:43.469Z,10.22
2017-10-21T17:41:11.278Z,10.17
2017-10-21T17:43:39.092Z,10.12
2017-10-21T17:46:08.086Z,10.36
2017-10-21T17:48:35.867Z,10.18
2017-10-21T17:51:03.711Z,10.21
2017-10-21T17:53:31.478Z,10.20
2017-10-21T17:55:59.274Z,10.23
2017-10-21T17:58:27.005Z,10.18
2017-10-21T18:00:54.830Z,10.08
2017-10-21T18:03:22.607Z,10.07
2017-10-21T18:05:50.549Z,10.02
2017-10-21T18:08:18.496Z,10.15
2017-10-21T18:10:46.293Z,10.16
2017-10-21T18:13:14.055Z,9.97
2017-10-21T18:15:41.924Z,10.03
2017-10-21T18:18:09.682Z,10.05
2017-10-21T18:20:37.420Z,9.97
2017-10-21T18:23:06.057Z,9.92
2017-10-21T18:25:34.630Z,9.83
2017-10-21T18:28:02.419Z,9.74
2017-10-21T18:30:30.200Z,9.73
2017-10-21T18:32:58.020Z,9.72
2017-10-21T18:35:25.852Z,9.74
2017-10-21T18:37:54.788Z,9.67
2017-10-21T18:40:22.655Z,9.87
2017-10-21T18:42:50.466Z,9.74
2017-10-21T18:45:18.487Z,9.75
2017-10-21T18:47:46.248Z,9.75
2017-10-21T18:50:13.950Z,9.60
2017-10-21T18:52:41.781Z,9.55
2017-10-21T18:55:09.536Z,9.53
2017-10-21T18:57:37.366Z,9.60
2017-10-21T19:00:05.116Z,9.57
2017-10-21T19:02:32.907Z,9.50
2017-10-21T19:05:00.639Z,9.43
2017-10-21T19:07:29.533Z,9.37
2017-10-21T19:09:58.146Z,9.40
2017-10-21T19:12:26.014Z,9.37
2017-10-21T19:14:53.752Z,9.46
2017-10-21T19:17:21.660Z,9.35
2017-10-21T19:19:49.457Z,9.39
2017-10-21T19:22:17.259Z,9.33
2017-10-21T19:24:44.979Z,9.25
2017-10-21T19:27:13.684Z,9.31
2017-10-21T19:29:41.509Z,9.18
2017-10-21T19:32:09.307Z,9.21
2017-10-21T19:34:37.153Z,9.15
2017-10-21T19:37:05.431Z,9.10
2017-10-21T19:39:33.206Z,9.12
2017-10-21T19:42:00.987Z,9.19
2017-10-21T19:44:28.692Z,8.99
2017-10-21T19:46:56.492Z,8.91
2017-10-21T19:49:24.209Z,8.98
2017-10-21T19:51:51.912Z,8.97
2017-10-21T19:54:19.681Z,8.93
2017-10-21T19:56:47.370Z,9.06
2017-10-21T19:59:15.069Z,8.95
2017-10-21T20:01:42.842Z,8.94
2017-10-21T20:04:10.601Z,8.97
2017-10-21T20:06:38.477Z,8.94
2017-10-21T20:09:06.846Z,8.84
2017-10-21T20:11:35.230Z,8.87
2017-10-21T20:14:02.981Z,8.56
2017-10-21T20:16:30.771Z,8.62
2017-10-21T20:18:58.540Z,8.55
2017-10-21T20:21:26.456Z,8.55
2017-10-21T20:23:54.160Z,8.43
2017-10-21T20:26:21.933Z,8.61
2017-10-21T20:28:49.661Z,8.56
2017-10-21T20:31:17.374Z,8.62
2017-10-21T20:33:45.178Z,8.62
2017-10-21T20:36:12.939Z,8.60
2017-10-21T20:38:40.754Z,8.56
2017-10-21T20:41:08.453Z,8.60
2017-10-21T20:43:36.234Z,8.59
2017-10-21T20:46:04.071Z,8.57
2017-10-21T20:48:31.825Z,8.43
2017-10-21T20:50:59.755Z,8.33
2017-10-21T20:53:27.506Z,8.46
2017-10-21T20:55:55.288Z,8.40
2017-10-21T20:58:23.043Z,8.40
2017-10-21T21:00:50.776Z,8.39
2017-10-21T21:03:18.589Z,8.39
2017-10-21T21:05:46.390Z,8.24
2017-10-21T21:08:14.106Z,8.31
2017-10-21T21:10:41.880Z,8.40
2017-10-21T21:13:09.585Z,8.36
2017-10-21T21:15:37.338Z,8.36
2017-10-21T21:18:05.071Z,8.29
2017-10-21T21:20:32.858Z,8.31
2017-10-21T21:23:00.652Z,8.31
2017-10-21T21:25:28.371Z,8.23
2017-10-21T21:27:56.085Z,8.32
2017-10-21T21:30:23.839Z,8.31
2017-10-21T21:32:51.589Z,8.02
2017-10-21T21:35:19.321Z,8.14
2017-10-21T21:37:47.094Z,8.18
2017-10-21T21:40:14.816Z,8.14
2017-10-21T21:42:42.604Z,8.27
2017-10-21T21:45:10.333Z,8.23
2017-10-21T21:47:38.030Z,8.17
2017-10-21T21:50:06.106Z,8.05
2017-10-21T21:52:33.851Z,8.08
2017-10-21T21:55:01.613Z,8.09
2017-10-21T21:57:29.414Z,8.11
2017-10-21T21:59:57.167Z,8.06
2017-10-21T22:02:24.985Z,8.04
2017-10-21T22:04:52.673Z,8.07
2017-10-21T22:07:20.407Z,8.00
2017-10-21T22:09:48.175Z,8.06
2017-10-21T22:12:15.896Z,8.03
2017-10-21T22:14:43.654Z,8.06
2017-10-21T22:17:11.372Z,8.05
2017-10-21T22:19:39.132Z,7.96
2017-10-21T22:22:06.845Z,8.00
2017-10-21T22:24:34.599Z,8.07
2017-10-21T22:27:02.427Z,8.06
2017-10-21T22:29:30.550Z,8.09
2017-10-21T22:31:58.250Z,8.05
2017-10-21T22:34:26.031Z,7.98
2017-10-21T22:36:53.711Z,7.89
2017-10-21T22:39:21.646Z,7.96
2017-10-21T22:41:49.402Z,7.88
2017-10-21T22:44:17.086Z,7.87
2017-10-21T22:46:44.830Z,7.91
2017-10-21T22:49:12.525Z,7.85
2017-10-21T22:51:40.304Z,7.81
2017-10-21T22:54:08.045Z,7.88
2017-10-21T22:56:35.792Z,7.88
2017-10-21T22:59:03.488Z,7.74
2017-10-21T23:01:31.208Z,7.75
2017-10-21T23:03:58.944Z,7.63
2017-10-21T23:06:26.758Z,7.47
2017-10-21T23:08:54.520Z,7.51
2017-10-21T23:11:22.214Z,7.51
2017-10-21T23:13:50.023Z,7.55
2017-10-21T23:16:17.756Z,7.56
2017-10-21T23:18:45.444Z,7.49
2017-10-21T23:21:13.373Z,7.32
2017-10-21T23:23:41.085Z,7.34
2017-10-21T23:26:08.846Z,7.37
2017-10-21T23:28:36.664Z,7.42
2017-10-21T23:31:04.360Z,7.42
2017-10-21T23:33:32.105Z,7.45
2017-10-21T23:35:59.799Z,7.50
2017-10-21T23:38:27.483Z,7.43
2017-10-21T23:40:55.228Z,7.43
2017-10-21T23:43:22.921Z,7.41
2017-10-21T23:45:50.684Z,7.31
2017-10-21T23:48:18.477Z,7.25
2017-10-21T23:50:46.152Z,7.18
2017-10-21T23:53:13.901Z,7.27
2017-10-21T23:55:41.903Z,7.12
2017-10-21T23:58:09.651Z,7.25
